OOCL Nagoya — VRFX8 — position and weather

sailwx.info

Track history (hours):
 
Tides and Currents Weather Stations Pressure Air Temp Water Temp Dewpoint Dewpoint Depression Visibility Wind Speed Wind Dir Waves Ship Positions

OOCL Nagoya

Last reported at 2014-Jul-14 05:27 UTC. Time now 2014-Jul-24 01:53 UTC.
Position N 22°13' E 114°09'.
Warning: this ship's position is 9 days out of date.

Length 260 m; draft 9.4 m.

Type: Cargo ship. MMSI: 477627900.

Date/timePositionNaut miles runAvg speedWind from/ knotsBaromVisibWave heightAir tempDewpointWater temp
2014-Jul-14 05:27N 22°13' E 114°09'3 0.2
2014-Jul-13 07:30N 22°16' E 114°07'  
2014-Jul-08 10:31N 34°30' E 139°08'1818.8
2014-Jul-08 09:34N 34°39' E 139°27'2019.6
2014-Jul-08 08:33N 34°56' E 139°38'1817.8
2014-Jul-08 07:33N 35°13' E 139°46'1211.8
2014-Jul-08 06:33N 35°24' E 139°43'1111.3
2014-Jul-08 05:33N 35°35' E 139°48'2 1.6
2014-Jul-08 04:31N 35°37' E 139°47'0 0.0
2014-Jul-08 03:31N 35°37' E 139°47'0 0.0
2014-Jul-08 02:31N 35°37' E 139°47'0 0.0
2014-Jul-08 01:31N 35°37' E 139°47'0 0.0
2014-Jul-08 00:31N 35°37' E 139°47'0 0.0
2014-Jul-07 23:31N 35°37' E 139°47'0 0.0
2014-Jul-07 22:31N 35°37' E 139°47'0 0.0
2014-Jul-07 21:28N 35°37' E 139°47'0 0.1
2014-Jul-07 20:31N 35°37' E 139°47'0 0.0
2014-Jul-07 19:31N 35°37' E 139°47'0 0.0
2014-Jul-07 18:31N 35°37' E 139°47'0 0.0
2014-Jul-07 17:31N 35°37' E 139°47'0 0.0
2014-Jul-07 16:31N 35°37' E 139°47'0 0.0
2014-Jul-07 15:31N 35°37' E 139°47'4 4.3
2014-Jul-07 14:34N 35°33' E 139°50'10 9.5
2014-Jul-07 13:33N 35°27' E 139°42'1 1.0
2014-Jul-07 12:32N 35°26' E 139°41'0 0.0
2014-Jul-07 11:32N 35°26' E 139°41'0 0.0
2014-Jul-07 10:32N 35°26' E 139°41'0 0.0
2014-Jul-07 09:32N 35°26' E 139°41'0 0.0
2014-Jul-07 08:32N 35°26' E 139°41'0 0.0
2014-Jul-07 07:32N 35°26' E 139°41'0 0.0
2014-Jul-07 06:32N 35°26' E 139°41'0 0.0
2014-Jul-07 05:32N 35°26' E 139°41'0 0.0
2014-Jul-07 04:32N 35°26' E 139°41'0 0.0
2014-Jul-07 03:32N 35°26' E 139°41'1 0.7
2014-Jul-07 02:34N 35°27' E 139°41'8 8.3
2014-Jul-07 01:34N 35°19' E 139°44'1111.0
2014-Jul-07 00:34N 35°08' E 139°45'1212.2
2014-Jul-06 23:33N 34°59' E 139°35'1414.0
2014-Jul-06 22:33N 34°52' E 139°20'6119.0
2014-Jul-06 19:22N 34°17' E 138°20'16817.1
2014-Jul-06 09:33N 33°54' E 134°59'1919.4
2014-Jul-06 08:33N 34°13' E 134°57'1111.0
2014-Jul-06 07:33N 34°24' E 135°01'1817.7
2014-Jul-06 06:33N 34°36' E 135°16'3 2.8
2014-Jul-06 05:25N 34°39' E 135°15'0 0.0
2014-Jul-06 04:25N 34°39' E 135°15'0 0.0
2014-Jul-06 03:31N 34°39' E 135°15'0 0.0
2014-Jul-06 02:19N 34°39' E 135°15'0 0.0
2014-Jul-06 01:31N 34°39' E 135°15'0 0.0
2014-Jul-06 00:25N 34°39' E 135°15'0 0.0
2014-Jul-05 23:31N 34°39' E 135°15'0 0.0
2014-Jul-05 22:33N 34°39' E 135°15'8 7.9
2014-Jul-05 21:33N 34°39' E 135°24'2 1.9
2014-Jul-05 20:32N 34°38' E 135°26'0 0.0
2014-Jul-05 19:32N 34°38' E 135°26'0 0.0
2014-Jul-05 18:32N 34°38' E 135°26'0 0.0
2014-Jul-05 17:32N 34°38' E 135°26'0 0.0
2014-Jul-05 15:32N 34°38' E 135°26'0 0.0
2014-Jul-05 14:20N 34°38' E 135°26'0 0.0
2014-Jul-05 13:26N 34°38' E 135°26'0 0.0
2014-Jul-05 12:32N 34°38' E 135°26'0 0.0
2014-Jul-05 11:32N 34°38' E 135°26'1 0.8
2014-Jul-05 10:33N 34°39' E 135°26'1111.1
2014-Jul-05 09:33N 34°32' E 135°15'1717.2
2014-Jul-05 08:33N 34°19' E 135°01'1414.1
2014-Jul-05 07:33N 34°05' E 134°58'  
Track history (hours):
 
Tides and Currents Weather Stations Pressure Air Temp Water Temp Dewpoint Dewpoint Depression Visibility Wind Speed Wind Dir Waves Ship Positions

OOCL Nagoya

Last reported at 2014-Jul-14 05:27 UTC. Time now 2014-Jul-24 01:53 UTC.
Position N 22°13' E 114°09'.
Warning: this ship's position is 9 days out of date.

Length 260 m; draft 9.4 m.

Type: Cargo ship. MMSI: 477627900.

Date/timePositionNaut miles runAvg speedWind from/ knotsBaromVisibWave heightAir tempDewpointWater temp
2014-Jul-14 05:27N 22°13' E 114°09'3 0.2
2014-Jul-13 07:30N 22°16' E 114°07'  
2014-Jul-08 10:31N 34°30' E 139°08'1818.8
2014-Jul-08 09:34N 34°39' E 139°27'2019.6
2014-Jul-08 08:33N 34°56' E 139°38'1817.8
2014-Jul-08 07:33N 35°13' E 139°46'1211.8
2014-Jul-08 06:33N 35°24' E 139°43'1111.3
2014-Jul-08 05:33N 35°35' E 139°48'2 1.6
2014-Jul-08 04:31N 35°37' E 139°47'0 0.0
2014-Jul-08 03:31N 35°37' E 139°47'0 0.0
2014-Jul-08 02:31N 35°37' E 139°47'0 0.0
2014-Jul-08 01:31N 35°37' E 139°47'0 0.0
2014-Jul-08 00:31N 35°37' E 139°47'0 0.0
2014-Jul-07 23:31N 35°37' E 139°47'0 0.0
2014-Jul-07 22:31N 35°37' E 139°47'0 0.0
2014-Jul-07 21:28N 35°37' E 139°47'0 0.1
2014-Jul-07 20:31N 35°37' E 139°47'0 0.0
2014-Jul-07 19:31N 35°37' E 139°47'0 0.0
2014-Jul-07 18:31N 35°37' E 139°47'0 0.0
2014-Jul-07 17:31N 35°37' E 139°47'0 0.0
2014-Jul-07 16:31N 35°37' E 139°47'0 0.0
2014-Jul-07 15:31N 35°37' E 139°47'4 4.3
2014-Jul-07 14:34N 35°33' E 139°50'10 9.5
2014-Jul-07 13:33N 35°27' E 139°42'1 1.0
2014-Jul-07 12:32N 35°26' E 139°41'0 0.0
2014-Jul-07 11:32N 35°26' E 139°41'0 0.0
2014-Jul-07 10:32N 35°26' E 139°41'0 0.0
2014-Jul-07 09:32N 35°26' E 139°41'0 0.0
2014-Jul-07 08:32N 35°26' E 139°41'0 0.0
2014-Jul-07 07:32N 35°26' E 139°41'0 0.0
2014-Jul-07 06:32N 35°26' E 139°41'0 0.0
2014-Jul-07 05:32N 35°26' E 139°41'0 0.0
2014-Jul-07 04:32N 35°26' E 139°41'0 0.0
2014-Jul-07 03:32N 35°26' E 139°41'1 0.7
2014-Jul-07 02:34N 35°27' E 139°41'8 8.3
2014-Jul-07 01:34N 35°19' E 139°44'1111.0
2014-Jul-07 00:34N 35°08' E 139°45'1212.2
2014-Jul-06 23:33N 34°59' E 139°35'1414.0
2014-Jul-06 22:33N 34°52' E 139°20'6119.0
2014-Jul-06 19:22N 34°17' E 138°20'16817.1
2014-Jul-06 09:33N 33°54' E 134°59'1919.4
2014-Jul-06 08:33N 34°13' E 134°57'1111.0
2014-Jul-06 07:33N 34°24' E 135°01'1817.7
2014-Jul-06 06:33N 34°36' E 135°16'3 2.8
2014-Jul-06 05:25N 34°39' E 135°15'0 0.0
2014-Jul-06 04:25N 34°39' E 135°15'0 0.0
2014-Jul-06 03:31N 34°39' E 135°15'0 0.0
2014-Jul-06 02:19N 34°39' E 135°15'0 0.0
2014-Jul-06 01:31N 34°39' E 135°15'0 0.0
2014-Jul-06 00:25N 34°39' E 135°15'0 0.0
2014-Jul-05 23:31N 34°39' E 135°15'0 0.0
2014-Jul-05 22:33N 34°39' E 135°15'8 7.9
2014-Jul-05 21:33N 34°39' E 135°24'2 1.9
2014-Jul-05 20:32N 34°38' E 135°26'0 0.0
2014-Jul-05 19:32N 34°38' E 135°26'0 0.0
2014-Jul-05 18:32N 34°38' E 135°26'0 0.0
2014-Jul-05 17:32N 34°38' E 135°26'0 0.0
2014-Jul-05 15:32N 34°38' E 135°26'0 0.0
2014-Jul-05 14:20N 34°38' E 135°26'0 0.0
2014-Jul-05 13:26N 34°38' E 135°26'0 0.0
2014-Jul-05 12:32N 34°38' E 135°26'0 0.0
2014-Jul-05 11:32N 34°38' E 135°26'1 0.8
2014-Jul-05 10:33N 34°39' E 135°26'1111.1
2014-Jul-05 09:33N 34°32' E 135°15'1717.2
2014-Jul-05 08:33N 34°19' E 135°01'1414.1
2014-Jul-05 07:33N 34°05' E 134°58'  

Dump ship's entire track history